Terminal Aerodrome Forecast
Issued by NWS New Orleans/Baton Rouge, LA

Home | Current Version | Previous Version | Text Only | Print | Product List | Glossary On
Versions: 1 2 3 4 5 6 7 8 9 10 11 12 13 14
000
FTUS44 KLIX 162331
TAFNEW
TAF
KNEW 162331Z 1700/1724 36020G30KT P6SM VCSH OVC019
      TEMPO 1701/1704 4SM -FZRASNPL OVC009
     FM170400 36021G31KT P6SM BKN014
     FM171000 36022G32KT P6SM SCT200
     FM171500 01019G26KT P6SM SKC=

USA.gov is the U.S. government's official web portal to all federal, state and local government web resources and services.